createdAt,value
2023-04-16T00:02:02.105Z,19.23
2023-04-16T00:04:29.996Z,20.07
2023-04-16T00:06:57.713Z,21.02
2023-04-16T00:09:25.499Z,21.48
2023-04-16T00:11:53.132Z,20.08
2023-04-16T00:14:22.099Z,20.75
2023-04-16T00:16:51.179Z,21.33
2023-04-16T00:19:18.941Z,20.87
2023-04-16T00:21:46.680Z,20.85
2023-04-16T00:24:14.870Z,20.97
2023-04-16T00:26:44.319Z,19.77
2023-04-16T00:29:12.000Z,21.35
2023-04-16T00:31:39.674Z,22.80
2023-04-16T00:34:08.756Z,20.75
2023-04-16T00:36:36.415Z,21.40
2023-04-16T00:39:04.130Z,22.38
2023-04-16T00:41:31.791Z,22.05
2023-04-16T00:43:59.464Z,22.38
2023-04-16T00:46:27.293Z,21.50
2023-04-16T00:48:55.499Z,22.95
2023-04-16T00:51:24.921Z,23.17
2023-04-16T00:53:52.900Z,23.00
2023-04-16T00:56:20.735Z,23.48
2023-04-16T00:58:48.647Z,24.30
2023-04-16T01:01:16.567Z,24.48
2023-04-16T01:03:45.868Z,24.93
2023-04-16T01:06:13.965Z,25.27
2023-04-16T01:08:43.191Z,23.97
2023-04-16T01:11:11.151Z,25.10
2023-04-16T01:13:39.844Z,25.73
2023-04-16T01:16:09.418Z,26.55
2023-04-16T01:18:37.813Z,26.35
2023-04-16T01:21:07.252Z,27.85
2023-04-16T01:23:34.974Z,26.23
2023-04-16T01:26:02.763Z,25.40
2023-04-16T01:28:30.470Z,26.05
2023-04-16T01:30:58.192Z,25.88
2023-04-16T01:33:25.883Z,25.55
2023-04-16T01:35:53.572Z,27.30
2023-04-16T01:38:22.756Z,24.23
2023-04-16T01:40:50.449Z,26.88
2023-04-16T01:43:18.130Z,27.10
2023-04-16T01:45:45.995Z,26.40
2023-04-16T01:48:13.681Z,25.85
2023-04-16T01:50:41.360Z,26.00
2023-04-16T01:53:09.728Z,27.05
2023-04-16T01:55:38.859Z,27.00
2023-04-16T01:58:07.935Z,28.30
2023-04-16T02:00:35.798Z,28.45
2023-04-16T02:03:03.815Z,27.20
2023-04-16T02:05:31.713Z,28.23
2023-04-16T02:07:59.378Z,25.80
2023-04-16T02:10:27.032Z,28.40
2023-04-16T02:12:56.626Z,28.00
2023-04-16T02:15:25.360Z,28.02
2023-04-16T02:17:56.790Z,26.98
2023-04-16T02:20:24.569Z,26.98
2023-04-16T02:22:52.238Z,27.70
2023-04-16T02:25:19.922Z,28.02
2023-04-16T02:27:47.580Z,29.07
2023-04-16T02:30:17.758Z,29.48
2023-04-16T02:32:45.471Z,28.45
2023-04-16T02:35:13.246Z,29.27
2023-04-16T02:37:41.708Z,28.13
2023-04-16T02:40:10.838Z,28.92
2023-04-16T02:42:38.509Z,26.80
2023-04-16T02:45:07.091Z,27.95
2023-04-16T02:47:36.165Z,26.35
2023-04-16T02:50:03.996Z,26.77
2023-04-16T02:52:32.823Z,28.27
2023-04-16T02:55:00.538Z,27.67
2023-04-16T02:57:28.221Z,27.00
2023-04-16T02:59:55.984Z,28.25
2023-04-16T03:02:23.836Z,27.15
2023-04-16T03:04:52.988Z,27.30
2023-04-16T03:07:20.728Z,25.92
2023-04-16T03:09:48.412Z,27.20
2023-04-16T03:12:16.092Z,27.02
2023-04-16T03:14:43.737Z,28.73
2023-04-16T03:17:35.385Z,26.83
2023-04-16T03:20:05.322Z,27.63
2023-04-16T03:22:32.978Z,29.60
2023-04-16T03:25:00.623Z,28.38
2023-04-16T03:27:28.308Z,27.67
2023-04-16T03:29:56.214Z,27.05
2023-04-16T03:32:24.125Z,28.70
2023-04-16T03:34:52.003Z,27.42
2023-04-16T03:37:21.089Z,28.90
2023-04-16T03:39:48.812Z,28.35
2023-04-16T03:42:16.901Z,28.08
2023-04-16T03:44:44.789Z,29.73
2023-04-16T03:47:12.479Z,29.00
2023-04-16T03:49:40.264Z,27.88
2023-04-16T03:52:07.943Z,30.23
2023-04-16T03:54:36.997Z,28.98
2023-04-16T03:57:04.974Z,29.65
2023-04-16T03:59:32.738Z,27.67
2023-04-16T04:02:00.512Z,29.33
2023-04-16T04:04:28.327Z,29.55
2023-04-16T04:06:56.413Z,29.92
2023-04-16T04:09:24.097Z,29.80
2023-04-16T04:11:53.197Z,28.42
2023-04-16T04:14:20.892Z,29.35
2023-04-16T04:16:48.987Z,28.83
2023-04-16T04:19:16.835Z,27.65
2023-04-16T04:21:44.465Z,30.30
2023-04-16T04:24:12.120Z,28.98
2023-04-16T04:26:39.770Z,29.25
2023-04-16T04:29:12.055Z,29.67
2023-04-16T04:31:39.934Z,28.45
2023-04-16T04:34:07.610Z,30.23
2023-04-16T04:36:35.491Z,29.67
2023-04-16T04:39:03.748Z,29.75
2023-04-16T04:41:31.433Z,28.77
2023-04-16T04:43:59.125Z,27.90
2023-04-16T04:46:28.217Z,28.73
2023-04-16T04:48:55.876Z,29.52
2023-04-16T04:51:23.534Z,29.17
2023-04-16T04:53:51.411Z,28.55
2023-04-16T04:56:19.106Z,31.33
2023-04-16T04:58:46.828Z,30.67
2023-04-16T05:01:14.597Z,29.60
2023-04-16T05:03:43.791Z,28.58
2023-04-16T05:06:11.612Z,29.75
2023-04-16T05:08:39.294Z,29.02
2023-04-16T05:11:06.950Z,29.58
2023-04-16T05:13:34.613Z,29.02
2023-04-16T05:16:02.503Z,27.80
2023-04-16T05:18:31.129Z,27.35
2023-04-16T05:21:00.234Z,27.35
2023-04-16T05:23:27.914Z,26.95
2023-04-16T05:25:55.670Z,29.95
2023-04-16T05:28:23.394Z,27.80
2023-04-16T05:30:51.133Z,28.90
2023-04-16T05:33:18.895Z,28.30
2023-04-16T05:35:46.582Z,28.20
2023-04-16T05:38:18.309Z,29.00
2023-04-16T05:40:46.144Z,28.10
2023-04-16T05:43:13.836Z,27.25
2023-04-16T05:45:41.614Z,27.63
2023-04-16T05:48:10.126Z,26.35
2023-04-16T05:50:37.832Z,27.02
2023-04-16T05:53:07.205Z,27.83
2023-04-16T05:55:36.877Z,26.85
2023-04-16T05:58:05.266Z,29.17
2023-04-16T06:00:33.102Z,27.95
2023-04-16T06:03:01.181Z,29.55
2023-04-16T06:05:29.127Z,27.70
2023-04-16T06:07:57.219Z,28.17
2023-04-16T06:10:24.986Z,27.35
2023-04-16T06:12:54.071Z,28.33
2023-04-16T06:15:21.961Z,27.25
2023-04-16T06:17:50.430Z,28.58
2023-04-16T06:20:18.185Z,27.67
2023-04-16T06:22:45.859Z,28.08
2023-04-16T06:25:14.008Z,27.10
2023-04-16T06:27:42.469Z,27.65
2023-04-16T06:30:14.568Z,27.20
2023-04-16T06:32:42.334Z,25.67
2023-04-16T06:35:10.547Z,26.27
2023-04-16T06:37:38.209Z,26.10
2023-04-16T06:40:06.793Z,26.77
2023-04-16T06:42:34.492Z,25.98
2023-04-16T06:45:02.493Z,27.20
2023-04-16T06:47:31.581Z,25.42
2023-04-16T06:49:59.604Z,26.20
2023-04-16T06:52:27.316Z,26.83
2023-04-16T06:54:55.024Z,26.30
2023-04-16T06:57:22.701Z,26.08
2023-04-16T06:59:50.351Z,25.47
2023-04-16T07:02:18.212Z,24.10
2023-04-16T07:04:47.332Z,23.73
2023-04-16T07:07:15.041Z,24.70
2023-04-16T07:09:42.902Z,24.20
2023-04-16T07:12:11.796Z,24.05
2023-04-16T07:14:39.448Z,24.60
2023-04-16T07:17:07.116Z,24.20
2023-04-16T07:19:35.564Z,23.35
2023-04-16T07:22:05.220Z,22.70
2023-04-16T07:24:33.104Z,25.38
2023-04-16T07:30:18.642Z,21.63
2023-04-16T07:32:46.375Z,23.00
2023-04-16T07:35:14.213Z,23.73
2023-04-16T07:37:43.249Z,23.53
2023-04-16T07:40:11.479Z,23.02
2023-04-16T07:42:39.146Z,23.48
2023-04-16T07:45:07.917Z,22.03
2023-04-16T07:47:35.713Z,22.35
2023-04-16T07:50:03.632Z,22.52
2023-04-16T07:52:31.357Z,23.38
2023-04-16T07:55:00.467Z,22.38
2023-04-16T07:57:28.151Z,22.40
2023-04-16T07:59:55.847Z,21.08
2023-04-16T08:02:23.838Z,21.88
2023-04-16T08:04:51.727Z,21.80
2023-04-16T08:07:19.570Z,22.85
2023-04-16T08:09:53.019Z,21.98
2023-04-16T08:12:22.356Z,22.33
2023-04-16T08:14:50.148Z,21.35
2023-04-16T08:17:17.975Z,22.67
2023-04-16T08:19:45.984Z,20.73
2023-04-16T08:22:13.752Z,21.67
2023-04-16T08:24:41.619Z,21.65
2023-04-16T08:27:18.666Z,22.20
2023-04-16T08:29:48.906Z,22.08
2023-04-16T08:32:16.614Z,22.00
2023-04-16T08:34:44.394Z,21.65
2023-04-16T08:37:12.138Z,21.77
2023-04-16T08:39:39.866Z,21.27
2023-04-16T08:42:13.087Z,21.38
2023-04-16T08:44:46.429Z,21.48
2023-04-16T08:47:17.229Z,20.08
2023-04-16T08:49:46.064Z,20.38
2023-04-16T08:52:17.326Z,20.15
2023-04-16T08:54:56.757Z,18.48
2023-04-16T08:57:25.469Z,19.33
2023-04-16T08:59:53.400Z,19.95
2023-04-16T09:02:23.079Z,18.65
2023-04-16T09:04:51.393Z,18.40
2023-04-16T09:07:20.912Z,18.75
2023-04-16T09:09:50.116Z,19.50
2023-04-16T09:12:18.885Z,17.20
2023-04-16T09:14:49.987Z,19.23
2023-04-16T09:17:18.121Z,18.93
2023-04-16T09:19:47.749Z,17.17
2023-04-16T09:22:15.574Z,15.90
2023-04-16T09:24:43.569Z,16.05
2023-04-16T09:27:12.139Z,15.85
2023-04-16T09:29:41.453Z,15.50
2023-04-16T09:32:10.635Z,15.75
2023-04-16T09:34:56.067Z,14.68
2023-04-16T09:37:24.091Z,14.32
2023-04-16T09:39:56.435Z,14.48
2023-04-16T09:42:27.120Z,14.15
2023-04-16T09:44:57.244Z,13.52
2023-04-16T09:47:27.863Z,14.10
2023-04-16T09:50:00.143Z,15.13
2023-04-16T09:52:28.202Z,13.82
2023-04-16T09:54:55.998Z,13.43
2023-04-16T09:57:24.752Z,13.18
2023-04-16T09:59:55.040Z,13.30
2023-04-16T10:02:23.767Z,12.55
2023-04-16T10:04:52.437Z,12.95
2023-04-16T10:07:22.067Z,11.93
2023-04-16T10:09:50.692Z,11.55
2023-04-16T10:12:18.413Z,12.52
2023-04-16T10:14:48.263Z,12.00
2023-04-16T10:17:17.897Z,12.00
2023-04-16T10:19:45.821Z,10.77
2023-04-16T10:22:13.812Z,10.25
2023-04-16T10:24:43.001Z,10.47
2023-04-16T10:27:10.795Z,10.63
2023-04-16T10:29:38.898Z,10.57
2023-04-16T10:32:08.034Z,12.73
2023-04-16T10:34:36.537Z,12.37
2023-04-16T10:37:04.404Z,12.82
2023-04-16T10:39:34.838Z,12.43
2023-04-16T10:42:11.833Z,12.82
2023-04-16T10:44:43.510Z,12.88
2023-04-16T10:47:14.379Z,12.23
2023-04-16T10:49:42.673Z,11.82
2023-04-16T10:52:12.573Z,11.70
2023-04-16T10:54:41.030Z,12.00
2023-04-16T10:57:12.302Z,11.27
2023-04-16T10:59:40.425Z,11.02
2023-04-16T11:02:09.708Z,10.68
2023-04-16T11:04:39.002Z,10.52
2023-04-16T11:07:17.404Z,9.20
2023-04-16T11:09:47.083Z,10.25
2023-04-16T11:12:18.473Z,10.65
2023-04-16T11:14:49.123Z,10.82
2023-04-16T11:17:17.340Z,10.35
2023-04-16T11:19:45.717Z,10.00
2023-04-16T11:22:17.104Z,10.45
2023-04-16T11:24:45.649Z,10.10
2023-04-16T11:27:14.658Z,9.05
2023-04-16T11:29:46.313Z,9.98
2023-04-16T11:32:23.901Z,9.93
2023-04-16T11:34:52.111Z,10.43
2023-04-16T11:37:22.551Z,9.85
2023-04-16T11:39:51.631Z,10.07
2023-04-16T11:42:23.777Z,10.95
2023-04-16T11:45:01.513Z,10.23
2023-04-16T11:47:31.449Z,10.73
2023-04-16T11:49:59.874Z,11.07
2023-04-16T11:52:30.975Z,10.52
2023-04-16T11:54:58.956Z,10.48
2023-04-16T11:57:28.403Z,10.93
2023-04-16T12:00:02.011Z,10.82
2023-04-16T12:02:39.151Z,10.75
2023-04-16T12:05:09.788Z,11.00
2023-04-16T12:07:46.814Z,10.47
2023-04-16T12:10:14.620Z,10.73
2023-04-16T12:12:42.328Z,11.25
2023-04-16T12:15:14.433Z,10.88
2023-04-16T12:17:42.432Z,10.55
2023-04-16T12:20:11.810Z,11.07
2023-04-16T12:22:40.657Z,10.35
2023-04-16T12:25:12.194Z,10.15
2023-04-16T12:27:48.004Z,10.33
2023-04-16T12:30:19.217Z,10.85
2023-04-16T12:35:32.651Z,10.90
2023-04-16T12:38:00.643Z,10.88
2023-04-16T12:40:29.059Z,10.80
2023-04-16T12:42:57.458Z,11.35
2023-04-16T12:45:26.712Z,11.48
2023-04-16T12:47:54.488Z,12.68
2023-04-16T12:50:22.410Z,12.20
2023-04-16T12:52:52.595Z,11.48
2023-04-16T12:55:20.518Z,11.77
2023-04-16T12:57:49.077Z,11.23
2023-04-16T13:00:17.677Z,10.70
2023-04-16T13:02:47.387Z,10.88
2023-04-16T13:05:16.628Z,10.25
2023-04-16T13:07:44.435Z,10.73
2023-04-16T13:10:13.285Z,10.35
2023-04-16T13:12:41.104Z,9.90
2023-04-16T13:15:10.522Z,9.35
2023-04-16T13:17:38.386Z,9.77
2023-04-16T13:20:09.077Z,10.02
2023-04-16T13:22:37.060Z,9.73
2023-04-16T13:25:05.038Z,9.98
2023-04-16T13:27:32.925Z,10.13
2023-04-16T13:30:00.662Z,9.82
2023-04-16T13:32:28.935Z,9.55
2023-04-16T13:34:56.648Z,9.48
2023-04-16T13:37:26.095Z,9.35
2023-04-16T13:39:53.780Z,9.93
2023-04-16T13:42:22.237Z,9.70
2023-04-16T13:44:53.128Z,9.38
2023-04-16T13:47:20.950Z,9.40
2023-04-16T13:49:48.737Z,8.88
2023-04-16T13:52:16.817Z,9.43
2023-04-16T13:54:45.959Z,9.05
2023-04-16T13:57:13.802Z,8.68
2023-04-16T13:59:41.591Z,9.43
2023-04-16T14:02:12.631Z,8.73
2023-04-16T14:04:40.488Z,9.40
2023-04-16T14:07:08.837Z,9.67
2023-04-16T14:09:38.000Z,8.95
2023-04-16T14:12:07.688Z,9.13
2023-04-16T14:14:35.390Z,8.90
2023-04-16T14:17:04.265Z,8.82
2023-04-16T14:19:32.048Z,9.45
2023-04-16T14:21:59.915Z,8.77
2023-04-16T14:24:27.570Z,8.88
2023-04-16T14:26:55.548Z,8.23
2023-04-16T14:29:24.646Z,8.85
2023-04-16T14:31:52.729Z,8.40
2023-04-16T14:34:20.513Z,8.17
2023-04-16T14:36:49.148Z,8.32
2023-04-16T14:39:17.535Z,8.55
2023-04-16T14:41:45.262Z,7.63
2023-04-16T14:44:13.049Z,7.50
2023-04-16T14:46:42.795Z,7.40
2023-04-16T14:49:12.280Z,8.27
2023-04-16T14:51:40.441Z,7.60
2023-04-16T14:54:08.307Z,7.22
2023-04-16T14:56:36.119Z,7.28
2023-04-16T14:59:04.116Z,7.70
2023-04-16T15:01:32.326Z,7.60
2023-04-16T15:04:03.114Z,7.65
2023-04-16T15:06:32.378Z,7.40
2023-04-16T15:09:00.255Z,7.82
2023-04-16T15:11:28.833Z,7.45
2023-04-16T15:13:56.561Z,7.53
2023-04-16T15:16:24.749Z,7.53
2023-04-16T15:18:52.708Z,7.50
2023-04-16T15:21:22.140Z,7.40
2023-04-16T15:23:49.870Z,6.95
2023-04-16T15:26:17.597Z,7.68
2023-04-16T15:31:30.688Z,7.40
2023-04-16T15:33:59.937Z,7.53
2023-04-16T15:36:29.249Z,7.30
2023-04-16T15:38:57.002Z,7.68
2023-04-16T15:41:25.582Z,7.72
2023-04-16T15:43:53.300Z,6.72
2023-04-16T15:46:21.292Z,7.20
2023-04-16T15:48:49.081Z,7.15
2023-04-16T15:51:17.128Z,6.90
2023-04-16T15:53:46.356Z,7.20
2023-04-16T15:56:14.293Z,7.20
2023-04-16T15:58:41.985Z,6.90
2023-04-16T16:01:09.962Z,7.80
2023-04-16T16:03:37.800Z,7.33
2023-04-16T16:06:07.689Z,8.07
2023-04-16T16:08:37.815Z,7.80
2023-04-16T16:11:16.150Z,7.50
2023-04-16T16:13:43.843Z,8.27
2023-04-16T16:16:11.847Z,8.10
2023-04-16T16:18:39.567Z,8.00
2023-04-16T16:21:08.089Z,7.25
2023-04-16T16:23:36.123Z,8.45
2023-04-16T16:26:06.128Z,8.20
2023-04-16T16:28:37.661Z,8.32
2023-04-16T16:31:06.069Z,8.35
2023-04-16T16:33:34.300Z,7.50
2023-04-16T16:36:02.036Z,7.90
2023-04-16T16:38:29.748Z,7.43
2023-04-16T16:40:57.474Z,8.10
2023-04-16T16:43:25.161Z,8.00
2023-04-16T16:45:54.319Z,7.97
2023-04-16T16:48:22.263Z,8.17
2023-04-16T16:51:38.869Z,7.85
2023-04-16T16:53:38.532Z,8.32
2023-04-16T16:56:07.161Z,8.02
2023-04-16T16:58:35.129Z,8.23
2023-04-16T17:01:04.378Z,8.35
2023-04-16T17:03:32.134Z,8.57
2023-04-16T17:06:00.185Z,8.10
2023-04-16T17:08:28.961Z,8.15
2023-04-16T17:10:56.644Z,8.45
2023-04-16T17:13:25.282Z,7.47
2023-04-16T17:15:52.984Z,8.60
2023-04-16T17:18:22.211Z,7.85
2023-04-16T17:20:49.951Z,9.10
2023-04-16T17:23:17.686Z,7.95
2023-04-16T17:25:45.466Z,8.50
2023-04-16T17:28:13.226Z,8.73
2023-04-16T17:30:40.933Z,8.50
2023-04-16T17:33:08.692Z,8.85
2023-04-16T17:35:37.894Z,8.50
2023-04-16T17:38:05.976Z,8.87
2023-04-16T17:40:33.661Z,8.75
2023-04-16T17:43:01.655Z,9.05
2023-04-16T17:45:29.364Z,9.03
2023-04-16T17:47:57.093Z,8.65
2023-04-16T17:50:24.908Z,8.27
2023-04-16T17:52:54.288Z,8.68
2023-04-16T17:55:22.054Z,8.30
2023-04-16T17:57:49.999Z,9.03
2023-04-16T18:00:18.601Z,8.38
2023-04-16T18:02:46.398Z,9.23
2023-04-16T18:05:14.240Z,9.30
2023-04-16T18:07:43.634Z,8.73
2023-04-16T18:10:34.879Z,8.80
2023-04-16T18:13:02.610Z,9.60
2023-04-16T18:15:30.856Z,8.82
2023-04-16T18:17:58.612Z,8.93
2023-04-16T18:20:27.195Z,9.30
2023-04-16T18:22:54.956Z,8.73
2023-04-16T18:25:33.932Z,9.48
2023-04-16T18:28:03.842Z,9.82
2023-04-16T18:30:31.987Z,9.77
2023-04-16T18:35:34.091Z,8.90
2023-04-16T18:38:02.312Z,9.70
2023-04-16T18:40:35.043Z,10.48
2023-04-16T18:43:02.889Z,10.80
2023-04-16T18:45:30.895Z,11.27
2023-04-16T18:47:59.699Z,11.38
2023-04-16T18:50:27.509Z,11.48
2023-04-16T18:52:55.247Z,11.27
2023-04-16T18:55:23.083Z,11.27
2023-04-16T18:57:52.298Z,11.93
2023-04-16T19:00:20.557Z,12.40
2023-04-16T19:02:48.393Z,11.88
2023-04-16T19:05:16.230Z,11.95
2023-04-16T19:07:44.017Z,11.63
2023-04-16T19:10:12.239Z,11.90
2023-04-16T19:12:39.962Z,12.07
2023-04-16T19:15:09.653Z,12.98
2023-04-16T19:17:37.407Z,12.48
2023-04-16T19:20:10.557Z,12.65
2023-04-16T19:22:38.287Z,12.40
2023-04-16T19:25:07.244Z,12.27
2023-04-16T19:27:35.579Z,12.45
2023-04-16T19:30:04.017Z,11.98
2023-04-16T19:32:33.130Z,12.57
2023-04-16T19:35:00.876Z,12.52
2023-04-16T19:37:28.556Z,12.40
2023-04-16T19:39:56.681Z,13.00
2023-04-16T19:42:24.514Z,12.33
2023-04-16T19:44:52.281Z,12.80
2023-04-16T19:47:20.386Z,12.80
2023-04-16T19:49:49.555Z,13.23
2023-04-16T19:52:17.389Z,12.95
2023-04-16T19:54:45.293Z,12.38
2023-04-16T19:57:12.968Z,13.13
2023-04-16T19:59:40.674Z,13.10
2023-04-16T20:02:08.326Z,13.02
2023-04-16T20:04:36.615Z,13.27
2023-04-16T20:07:05.864Z,12.97
2023-04-16T20:09:33.547Z,12.57
2023-04-16T20:12:02.058Z,12.95
2023-04-16T20:14:30.079Z,14.18
2023-04-16T20:17:19.523Z,13.05
2023-04-16T20:19:49.600Z,13.68
2023-04-16T20:22:19.190Z,14.55
2023-04-16T20:24:48.291Z,14.07
2023-04-16T20:27:16.826Z,13.43
2023-04-16T20:29:46.396Z,13.00
2023-04-16T20:32:14.071Z,13.27
2023-04-16T20:34:42.931Z,13.25
2023-04-16T20:37:10.646Z,14.20
2023-04-16T20:39:40.166Z,13.10
2023-04-16T20:42:10.112Z,13.23
2023-04-16T20:44:41.282Z,12.97
2023-04-16T20:47:09.272Z,13.60
2023-04-16T20:49:38.332Z,13.25
2023-04-16T20:52:07.438Z,14.38
2023-04-16T20:54:35.167Z,13.77
2023-04-16T20:57:05.092Z,13.60
2023-04-16T20:59:33.084Z,14.10
2023-04-16T21:02:01.610Z,13.45
2023-04-16T21:04:29.675Z,14.32
2023-04-16T21:06:57.487Z,14.63
2023-04-16T21:09:25.169Z,14.77
2023-04-16T21:11:52.968Z,13.77
2023-04-16T21:14:22.100Z,14.27
2023-04-16T21:16:49.838Z,13.32
2023-04-16T21:19:17.563Z,14.73
2023-04-16T21:21:45.479Z,14.63
2023-04-16T21:24:13.180Z,14.77
2023-04-16T21:26:40.942Z,14.27
2023-04-16T21:29:08.866Z,14.95
2023-04-16T21:31:38.077Z,14.40
2023-04-16T21:34:05.861Z,14.93
2023-04-16T21:36:34.212Z,14.73
2023-04-16T21:39:02.271Z,14.63
2023-04-16T21:41:29.957Z,15.23
2023-04-16T21:43:57.664Z,15.35
2023-04-16T21:46:26.383Z,14.10
2023-04-16T21:48:55.516Z,15.15
2023-04-16T21:51:29.040Z,15.43
2023-04-16T21:53:57.086Z,15.23
2023-04-16T21:56:24.889Z,14.80
2023-04-16T21:58:52.675Z,15.73
2023-04-16T22:01:20.494Z,14.95
2023-04-16T22:03:50.986Z,15.65
2023-04-16T22:06:20.939Z,16.10
2023-04-16T22:08:50.079Z,15.80
2023-04-16T22:11:17.954Z,15.73
2023-04-16T22:13:46.422Z,16.95
2023-04-16T22:16:14.432Z,16.20
2023-04-16T22:18:42.820Z,15.40
2023-04-16T22:21:10.561Z,16.35
2023-04-16T22:23:39.651Z,15.57
2023-04-16T22:26:08.405Z,16.27
2023-04-16T22:28:36.141Z,15.52
2023-04-16T22:31:04.108Z,16.10
2023-04-16T22:33:32.164Z,15.23
2023-04-16T22:36:00.570Z,15.80
2023-04-16T22:38:28.264Z,15.43
2023-04-16T22:40:57.372Z,16.03
2023-04-16T22:43:25.061Z,16.15
2023-04-16T22:46:02.430Z,16.90
2023-04-16T22:48:30.118Z,15.75
2023-04-16T22:50:57.910Z,15.38
2023-04-16T22:53:25.720Z,16.05
2023-04-16T22:55:53.404Z,15.53
2023-04-16T22:58:22.563Z,15.65
2023-04-16T23:00:51.849Z,14.57
2023-04-16T23:03:19.648Z,15.43
2023-04-16T23:05:47.461Z,15.73
2023-04-16T23:08:15.175Z,15.30
2023-04-16T23:10:43.217Z,15.93
2023-04-16T23:13:11.193Z,16.67
2023-04-16T23:15:40.663Z,16.42
2023-04-16T23:18:08.399Z,16.90
2023-04-16T23:20:36.554Z,16.38
2023-04-16T23:23:04.710Z,16.75
2023-04-16T23:25:32.929Z,17.05
2023-04-16T23:28:00.715Z,16.73
2023-04-16T23:30:28.429Z,16.77
2023-04-16T23:32:57.550Z,17.98
2023-04-16T23:35:25.414Z,17.65
2023-04-16T23:37:53.125Z,16.95
2023-04-16T23:40:21.106Z,18.15
2023-04-16T23:42:49.034Z,19.10
2023-04-16T23:45:16.984Z,18.42
2023-04-16T23:47:44.822Z,18.60
2023-04-16T23:50:14.425Z,18.70
2023-04-16T23:52:42.139Z,17.77
2023-04-16T23:55:10.396Z,18.67
2023-04-16T23:57:38.417Z,16.67
